createdAt,value
2023-02-18T00:04:12.427Z,100447.13
2023-02-18T00:09:18.046Z,100450.11
2023-02-18T00:14:23.549Z,100461.05
2023-02-18T00:19:29.078Z,100439.62
2023-02-18T00:24:35.696Z,100425.75
2023-02-18T00:29:41.762Z,100470.37
2023-02-18T00:34:47.285Z,100449.23
2023-02-18T00:39:52.730Z,100445.46
2023-02-18T00:44:58.260Z,100443.98
2023-02-18T00:50:03.999Z,100445.47
2023-02-18T00:55:09.686Z,100444.53
2023-02-18T01:00:15.891Z,100458.91
2023-02-18T01:05:23.518Z,100457.90
2023-02-18T01:10:28.985Z,100452.97
2023-02-18T01:15:35.578Z,100448.05
2023-02-18T01:20:43.625Z,100461.52
2023-02-18T01:25:49.537Z,100463.47
2023-02-18T01:30:55.576Z,100467.61
2023-02-18T01:36:03.311Z,100478.10
2023-02-18T01:41:09.578Z,100491.41
2023-02-18T01:46:18.631Z,100471.34
2023-02-18T01:51:32.950Z,100474.58
2023-02-18T01:56:41.376Z,100495.86
2023-02-18T02:01:47.797Z,100511.25
2023-02-18T02:06:53.363Z,100498.09
2023-02-18T02:12:12.519Z,100498.88
2023-02-18T02:17:46.995Z,100501.20
2023-02-18T02:23:19.590Z,100502.61
2023-02-18T02:28:30.754Z,100500.34
2023-02-18T02:33:42.166Z,100524.56
2023-02-18T02:38:53.571Z,100521.90
2023-02-18T02:44:04.879Z,100520.05
2023-02-18T02:49:32.731Z,100515.58
2023-02-18T02:54:38.456Z,100522.03
2023-02-18T02:59:47.210Z,100517.70
2023-02-18T03:04:56.088Z,100542.88
2023-02-18T03:10:13.885Z,100524.28
2023-02-18T03:15:31.235Z,100527.00
2023-02-18T03:20:52.086Z,100537.77
2023-02-18T03:26:00.092Z,100549.39
2023-02-18T03:31:13.477Z,100555.86
2023-02-18T03:36:22.267Z,100549.81
2023-02-18T03:41:28.161Z,100558.38
2023-02-18T03:46:35.700Z,100577.71
2023-02-18T03:51:42.314Z,100563.42
2023-02-18T03:56:47.821Z,100565.89
2023-02-18T04:01:53.250Z,100565.89
2023-02-18T04:06:58.738Z,100566.75
2023-02-18T04:12:04.346Z,100567.57
2023-02-18T04:17:10.670Z,100567.97
2023-02-18T04:22:16.247Z,100573.59
2023-02-18T04:27:22.044Z,100571.00
2023-02-18T04:32:28.755Z,100580.56
2023-02-18T04:37:34.652Z,100583.89
2023-02-18T04:42:40.388Z,100581.03
2023-02-18T04:47:45.856Z,100592.70
2023-02-18T04:52:51.470Z,100604.00
2023-02-18T04:57:57.011Z,100589.38
2023-02-18T05:03:02.517Z,100596.76
2023-02-18T05:08:08.721Z,100590.84
2023-02-18T05:13:15.142Z,100597.48
2023-02-18T05:18:20.744Z,100588.58
2023-02-18T05:23:26.209Z,100598.22
2023-02-18T05:28:31.877Z,100605.06
2023-02-18T05:33:38.426Z,100606.22
2023-02-18T05:38:44.032Z,100626.25
2023-02-18T05:44:07.663Z,100616.16
2023-02-18T05:49:13.590Z,100608.66
2023-02-18T05:54:18.978Z,100627.59
2023-02-18T05:59:24.968Z,100634.52
2023-02-18T06:04:30.565Z,100641.92
2023-02-18T06:09:36.036Z,100634.63
2023-02-18T06:14:42.469Z,100636.15
2023-02-18T06:19:48.099Z,100645.53
2023-02-18T06:24:53.482Z,100646.79
2023-02-18T06:29:58.996Z,100660.67
2023-02-18T06:35:04.743Z,100649.52
2023-02-18T06:40:11.526Z,100631.63
2023-02-18T06:45:17.314Z,100636.81
2023-02-18T06:50:22.788Z,100640.41
2023-02-18T06:55:29.541Z,100631.04
2023-02-18T07:00:35.913Z,100643.33
2023-02-18T07:05:41.565Z,100624.53
2023-02-18T07:10:48.200Z,100628.98
2023-02-18T07:15:53.951Z,100620.15
2023-02-18T07:20:59.464Z,100641.28
2023-02-18T07:26:10.548Z,100648.73
2023-02-18T07:31:17.787Z,100630.98
2023-02-18T07:36:23.367Z,100620.92
2023-02-18T07:41:28.836Z,100623.91
2023-02-18T07:46:34.360Z,100620.05
2023-02-18T07:51:40.509Z,100618.12
2023-02-18T07:56:46.891Z,100623.61
2023-02-18T08:01:52.325Z,100611.94
2023-02-18T08:06:57.790Z,100634.94
2023-02-18T08:12:03.186Z,100625.81
2023-02-18T08:17:08.860Z,100618.72
2023-02-18T08:22:14.235Z,100618.70
2023-02-18T08:27:19.643Z,100611.08
2023-02-18T08:32:29.603Z,100615.51
2023-02-18T08:37:52.685Z,100588.57
2023-02-18T08:42:42.849Z,100601.84
2023-02-18T08:48:18.499Z,100593.76
2023-02-18T08:52:56.171Z,100598.86
2023-02-18T08:58:02.093Z,100615.05
2023-02-18T09:03:07.997Z,100595.49
2023-02-18T09:08:13.373Z,100596.78
2023-02-18T09:13:18.756Z,100581.71
2023-02-18T09:18:24.442Z,100573.44
2023-02-18T09:23:32.765Z,100574.43
2023-02-18T09:28:38.917Z,100564.64
2023-02-18T09:33:47.682Z,100550.05
2023-02-18T09:38:53.671Z,100554.70
2023-02-18T09:44:02.238Z,100560.90
2023-02-18T09:49:10.675Z,100552.25
2023-02-18T09:54:18.969Z,100562.05
2023-02-18T09:59:26.574Z,100550.92
2023-02-18T10:04:35.077Z,100535.56
2023-02-18T10:09:42.278Z,100521.50
2023-02-18T10:14:56.412Z,100517.43
2023-02-18T10:20:07.818Z,100506.88
2023-02-18T10:25:14.547Z,100503.86
2023-02-18T10:30:26.269Z,100505.59
2023-02-18T10:35:34.820Z,100484.35
2023-02-18T10:41:12.133Z,100475.19
2023-02-18T10:46:20.612Z,100458.50
2023-02-18T10:51:32.159Z,100465.01
2023-02-18T10:56:44.126Z,100466.16
2023-02-18T11:01:58.536Z,100457.66
2023-02-18T11:07:09.734Z,100465.22
2023-02-18T11:12:34.974Z,100459.30
2023-02-18T11:17:42.842Z,100448.80
2023-02-18T11:22:49.810Z,100449.41
2023-02-18T11:27:57.849Z,100435.62
2023-02-18T11:33:06.274Z,100426.78
2023-02-18T11:38:23.611Z,100414.49
2023-02-18T11:43:31.908Z,100405.88
2023-02-18T11:48:37.774Z,100392.10
2023-02-18T11:53:59.948Z,100395.30
2023-02-18T11:59:07.256Z,100390.23
2023-02-18T12:04:22.081Z,100389.50
2023-02-18T12:09:36.468Z,100382.48
2023-02-18T12:14:41.951Z,100372.84
2023-02-18T12:20:06.689Z,100352.48
2023-02-18T12:25:30.426Z,100346.39
2023-02-18T12:30:51.006Z,100362.52
2023-02-18T12:36:08.738Z,100354.06
2023-02-18T12:41:20.101Z,100353.44
2023-02-18T12:46:28.716Z,100344.58
2023-02-18T12:52:01.695Z,100343.15
2023-02-18T12:57:18.425Z,100335.47
2023-02-18T13:02:33.098Z,100327.17
2023-02-18T13:07:44.188Z,100318.37
2023-02-18T13:13:21.689Z,100306.95
2023-02-18T13:18:34.633Z,100308.99
2023-02-18T13:23:43.141Z,100303.64
2023-02-18T13:29:11.141Z,100305.95
2023-02-18T13:34:31.591Z,100307.89
2023-02-18T13:39:38.120Z,100309.62
2023-02-18T13:45:03.306Z,100308.63
2023-02-18T13:50:26.861Z,100307.84
2023-02-18T13:55:50.541Z,100289.55
2023-02-18T14:00:58.972Z,100282.27
2023-02-18T14:06:16.045Z,100271.95
2023-02-18T14:11:25.103Z,100264.80
2023-02-18T14:16:33.600Z,100256.33
2023-02-18T14:21:44.361Z,100256.33
2023-02-18T14:26:51.076Z,100260.70
2023-02-18T14:31:59.710Z,100265.92
2023-02-18T14:37:29.496Z,100279.69
2023-02-18T14:43:02.102Z,100273.58
2023-02-18T14:48:22.310Z,100273.58
2023-02-18T14:53:29.145Z,100261.08
2023-02-18T14:58:40.108Z,100261.08
2023-02-18T15:03:45.808Z,100258.89
2023-02-18T15:08:51.332Z,100255.78
2023-02-18T15:13:56.794Z,100272.98
2023-02-18T15:19:07.856Z,100272.98
2023-02-18T15:24:34.783Z,100295.27
2023-02-18T15:29:40.875Z,100283.96
2023-02-18T15:34:47.561Z,100292.25
2023-02-18T15:39:53.327Z,100308.36
2023-02-18T15:45:01.696Z,100311.17
2023-02-18T15:50:10.216Z,100319.08
2023-02-18T15:55:18.666Z,100332.47
2023-02-18T16:00:42.021Z,100343.28
2023-02-18T16:05:47.891Z,100363.82
2023-02-18T16:11:06.146Z,100339.48
2023-02-18T16:16:07.656Z,100337.59
2023-02-18T16:21:22.458Z,100368.86
2023-02-18T16:26:43.410Z,100390.00
2023-02-18T16:31:49.393Z,100390.00
2023-02-18T16:37:13.614Z,100398.25
2023-02-18T16:42:19.231Z,100406.88
2023-02-18T16:47:24.768Z,100406.88
2023-02-18T16:52:30.174Z,100403.71
2023-02-18T16:57:35.577Z,100450.08
2023-02-18T17:02:41.202Z,100450.08
2023-02-18T17:07:47.280Z,100444.15
2023-02-18T17:12:52.734Z,100452.79
2023-02-18T17:17:59.698Z,100460.16
2023-02-18T17:23:05.473Z,100468.16
2023-02-18T17:28:11.507Z,100477.69
2023-02-18T17:33:19.835Z,100487.45
2023-02-18T17:38:25.301Z,100493.16
2023-02-18T17:43:30.831Z,100496.33
2023-02-18T17:48:36.299Z,100494.16
2023-02-18T17:53:41.684Z,100509.30
2023-02-18T17:58:47.905Z,100517.00
2023-02-18T18:03:53.471Z,100532.02
2023-02-18T18:08:58.936Z,100543.22
2023-02-18T18:14:04.963Z,100545.11
2023-02-18T18:19:10.404Z,100545.91
2023-02-18T18:24:16.033Z,100548.91
2023-02-18T18:29:21.576Z,100566.84
2023-02-18T18:34:27.188Z,100581.45
2023-02-18T18:39:32.608Z,100589.31
2023-02-18T18:44:38.065Z,100611.34
2023-02-18T18:49:43.560Z,100621.00
2023-02-18T18:54:49.376Z,100623.05
2023-02-18T18:59:54.758Z,100623.05
2023-02-18T19:05:00.201Z,100628.84
2023-02-18T19:10:05.798Z,100619.18
2023-02-18T19:15:17.036Z,100620.31
2023-02-18T19:20:25.846Z,100643.71
2023-02-18T19:25:31.685Z,100650.14
2023-02-18T19:30:38.272Z,100651.28
2023-02-18T19:35:44.387Z,100662.64
2023-02-18T19:40:49.876Z,100669.77
2023-02-18T19:45:55.360Z,100670.63
2023-02-18T19:51:05.478Z,100684.67
2023-02-18T19:56:11.004Z,100689.83
2023-02-18T20:01:18.599Z,100675.05
2023-02-18T20:06:24.081Z,100696.17
2023-02-18T20:11:31.661Z,100692.61
2023-02-18T20:16:37.774Z,100692.20
2023-02-18T20:21:43.283Z,100689.64
2023-02-18T20:26:49.127Z,100697.03
2023-02-18T20:31:55.636Z,100712.50
2023-02-18T20:37:02.202Z,100693.98
2023-02-18T20:42:15.866Z,100707.66
2023-02-18T20:47:15.269Z,100704.74
2023-02-18T20:52:20.730Z,100707.82
2023-02-18T20:57:26.635Z,100709.81
2023-02-18T21:02:32.188Z,100711.56
2023-02-18T21:07:37.585Z,100715.77
2023-02-18T21:12:44.369Z,100722.14
2023-02-18T21:17:49.993Z,100725.64
2023-02-18T21:22:56.403Z,100738.06
2023-02-18T21:28:02.512Z,100755.23
2023-02-18T21:33:08.098Z,100748.34
2023-02-18T21:38:13.566Z,100748.92
2023-02-18T21:43:20.410Z,100755.63
2023-02-18T21:48:44.106Z,100739.23
2023-02-18T21:53:49.575Z,100743.87
2023-02-18T21:58:55.812Z,100730.52
2023-02-18T22:04:01.756Z,100723.46
2023-02-18T22:09:07.938Z,100714.74
2023-02-18T22:14:14.788Z,100726.02
2023-02-18T22:19:20.607Z,100737.09
2023-02-18T22:24:27.492Z,100731.80
2023-02-18T22:29:33.919Z,100751.59
2023-02-18T22:34:39.497Z,100761.59
2023-02-18T22:39:44.940Z,100760.52
2023-02-18T22:44:50.329Z,100757.46
2023-02-18T22:49:55.715Z,100751.05
2023-02-18T22:55:01.157Z,100759.98
2023-02-18T23:00:10.719Z,100767.87
2023-02-18T23:05:16.182Z,100767.74
2023-02-18T23:10:22.632Z,100771.30
2023-02-18T23:15:28.033Z,100762.45
2023-02-18T23:20:51.808Z,100769.94
2023-02-18T23:26:00.243Z,100764.94
2023-02-18T23:31:06.310Z,100756.96
2023-02-18T23:36:14.201Z,100753.73
2023-02-18T23:41:20.632Z,100755.10
2023-02-18T23:46:27.734Z,100765.59
2023-02-18T23:51:34.104Z,100766.17
2023-02-18T23:56:40.135Z,100758.57
